createdAt,value
2022-09-28T00:00:47.643Z,11.32
2022-09-28T00:03:14.251Z,9.48
2022-09-28T00:05:40.915Z,7.95
2022-09-28T00:08:07.624Z,8.05
2022-09-28T00:10:34.243Z,16.17
2022-09-28T00:13:01.504Z,8.93
2022-09-28T00:15:28.136Z,8.70
2022-09-28T00:17:54.805Z,7.82
2022-09-28T00:20:22.749Z,10.50
2022-09-28T00:22:49.406Z,9.95
2022-09-28T00:25:17.027Z,13.88
2022-09-28T00:27:43.884Z,11.48
2022-09-28T00:30:10.699Z,9.40
2022-09-28T00:32:37.457Z,11.27
2022-09-28T00:35:04.776Z,11.10
2022-09-28T00:37:31.548Z,14.15
2022-09-28T00:39:58.418Z,17.55
2022-09-28T00:42:26.846Z,12.23
2022-09-28T00:44:57.464Z,11.68
2022-09-28T00:47:56.774Z,11.63
2022-09-28T00:50:32.955Z,15.73
2022-09-28T00:53:31.159Z,19.05
2022-09-28T00:56:03.820Z,17.65
2022-09-28T00:58:32.761Z,14.40
2022-09-28T01:01:00.063Z,12.95
2022-09-28T01:03:28.502Z,14.43
2022-09-28T01:05:57.373Z,14.48
2022-09-28T01:08:24.986Z,15.00
2022-09-28T01:10:52.080Z,20.63
2022-09-28T01:13:19.360Z,18.92
2022-09-28T01:16:30.953Z,15.35
2022-09-28T01:19:24.496Z,15.02
2022-09-28T01:21:56.194Z,20.95
2022-09-28T01:24:40.424Z,14.88
2022-09-28T01:27:16.718Z,17.67
2022-09-28T01:29:47.508Z,16.90
2022-09-28T01:32:17.179Z,19.08
2022-09-28T01:35:07.671Z,17.77
2022-09-28T01:37:41.834Z,17.95
2022-09-28T01:40:09.191Z,19.48
2022-09-28T01:42:38.363Z,20.08
2022-09-28T01:45:09.938Z,17.70
2022-09-28T01:47:38.765Z,18.30
2022-09-28T01:50:10.528Z,20.02
2022-09-28T01:53:09.471Z,17.52
2022-09-28T01:55:43.042Z,16.17
2022-09-28T01:58:16.635Z,22.08
2022-09-28T02:00:46.593Z,38.72
2022-09-28T02:03:20.866Z,18.15
2022-09-28T02:06:01.117Z,19.58
2022-09-28T02:09:11.776Z,18.38
2022-09-28T02:11:43.086Z,17.00
2022-09-28T02:14:12.245Z,15.05
2022-09-28T02:16:46.392Z,15.75
2022-09-28T02:19:16.640Z,20.95
2022-09-28T02:22:01.633Z,21.92
2022-09-28T02:24:54.666Z,13.85
2022-09-28T02:27:41.623Z,14.00
2022-09-28T02:30:09.037Z,14.18
2022-09-28T02:32:41.268Z,15.15
2022-09-28T02:35:16.943Z,12.38
2022-09-28T02:37:43.917Z,17.65
2022-09-28T02:40:21.972Z,11.80
2022-09-28T02:43:06.974Z,15.00
2022-09-28T02:45:52.055Z,13.40
2022-09-28T02:48:43.614Z,19.88
2022-09-28T02:51:14.500Z,16.85
2022-09-28T02:54:06.570Z,19.38
2022-09-28T02:56:35.838Z,20.27
2022-09-28T02:59:08.136Z,20.63
2022-09-28T03:01:51.521Z,20.35
2022-09-28T03:04:39.958Z,21.15
2022-09-28T03:07:41.750Z,19.73
2022-09-28T03:10:20.058Z,18.55
2022-09-28T03:12:47.796Z,21.45
2022-09-28T03:15:30.573Z,36.65
2022-09-28T03:17:58.136Z,24.30
2022-09-28T03:20:25.867Z,24.08
2022-09-28T03:23:19.626Z,22.10
2022-09-28T03:25:39.183Z,19.10
2022-09-28T03:28:05.848Z,32.08
2022-09-28T03:30:32.517Z,22.40
2022-09-28T03:33:00.420Z,22.60
2022-09-28T03:35:27.097Z,26.67
2022-09-28T03:37:57.023Z,19.38
2022-09-28T03:40:24.040Z,15.45
2022-09-28T03:42:50.813Z,17.08
2022-09-28T03:45:17.482Z,18.77
2022-09-28T03:47:47.284Z,23.92
2022-09-28T03:50:14.302Z,26.88
2022-09-28T03:52:40.961Z,18.42
2022-09-28T03:55:07.963Z,18.55
2022-09-28T03:57:34.658Z,18.08
2022-09-28T04:00:01.537Z,18.15
2022-09-28T04:02:28.266Z,17.48
2022-09-28T04:04:54.966Z,20.42
2022-09-28T04:07:21.611Z,23.67
2022-09-28T04:09:48.233Z,26.85
2022-09-28T04:12:14.912Z,31.83
2022-09-28T04:14:41.564Z,26.73
2022-09-28T04:17:08.186Z,27.75
2022-09-28T04:19:34.884Z,26.73
2022-09-28T04:22:02.122Z,27.88
2022-09-28T04:24:28.843Z,25.70
2022-09-28T04:27:18.445Z,27.13
2022-09-28T04:29:45.172Z,26.17
2022-09-28T04:32:12.122Z,24.27
2022-09-28T04:34:43.178Z,18.48
2022-09-28T04:37:10.667Z,22.98
2022-09-28T04:39:37.453Z,19.45
2022-09-28T04:42:04.095Z,33.17
2022-09-28T04:44:30.809Z,51.72
2022-09-28T04:46:59.719Z,47.97
2022-09-28T04:49:29.614Z,50.38
2022-09-28T04:51:56.258Z,46.72
2022-09-28T04:54:22.899Z,36.47
2022-09-28T04:56:49.609Z,27.55
2022-09-28T04:59:16.412Z,32.45
2022-09-28T05:01:43.138Z,25.77
2022-09-28T05:04:09.835Z,27.13
2022-09-28T05:06:36.526Z,27.92
2022-09-28T05:09:03.164Z,28.55
2022-09-28T05:11:29.911Z,28.05
2022-09-28T05:13:56.726Z,25.20
2022-09-28T05:16:25.201Z,22.60
2022-09-28T05:18:56.008Z,23.13
2022-09-28T05:21:25.191Z,22.08
2022-09-28T05:23:52.413Z,19.75
2022-09-28T05:26:19.306Z,22.17
2022-09-28T05:28:45.974Z,24.63
2022-09-28T05:31:12.648Z,23.30
2022-09-28T05:33:39.631Z,25.38
2022-09-28T05:36:09.271Z,19.40
2022-09-28T05:38:35.946Z,28.40
2022-09-28T05:41:06.377Z,23.33
2022-09-28T05:43:33.709Z,24.05
2022-09-28T05:46:00.609Z,25.40
2022-09-28T05:48:28.421Z,33.30
2022-09-28T05:50:55.242Z,36.83
2022-09-28T05:53:22.218Z,29.40
2022-09-28T05:55:48.950Z,31.20
2022-09-28T05:58:15.737Z,31.23
2022-09-28T06:00:42.431Z,29.40
2022-09-28T06:03:12.970Z,37.25
2022-09-28T06:05:40.161Z,28.63
2022-09-28T06:08:08.518Z,31.35
2022-09-28T06:10:35.705Z,20.73
2022-09-28T06:13:02.408Z,30.95
2022-09-28T06:15:31.001Z,20.50
2022-09-28T06:17:59.114Z,19.10
2022-09-28T06:20:27.005Z,25.45
2022-09-28T06:22:53.950Z,19.73
2022-09-28T06:25:21.725Z,21.55
2022-09-28T06:28:02.847Z,23.00
2022-09-28T06:32:58.331Z,21.25
2022-09-28T06:35:26.368Z,45.58
2022-09-28T06:37:53.784Z,24.63
2022-09-28T06:40:21.309Z,22.00
2022-09-28T06:43:10.597Z,25.27
2022-09-28T06:45:38.464Z,22.58
2022-09-28T06:48:05.745Z,24.02
2022-09-28T06:50:35.996Z,25.08
2022-09-28T06:53:02.878Z,21.88
2022-09-28T06:55:29.818Z,19.40
2022-09-28T06:58:09.392Z,20.90
2022-09-28T07:00:37.689Z,15.10
2022-09-28T07:03:10.600Z,16.40
2022-09-28T07:05:41.439Z,17.88
2022-09-28T07:08:08.410Z,13.63
2022-09-28T07:10:35.075Z,15.35
2022-09-28T07:13:04.165Z,19.55
2022-09-28T07:15:32.264Z,27.73
2022-09-28T07:18:03.916Z,30.58
2022-09-28T07:20:39.061Z,26.38
2022-09-28T07:23:18.837Z,22.92
2022-09-28T07:25:48.036Z,21.75
2022-09-28T07:28:15.992Z,26.23
2022-09-28T07:30:44.686Z,22.05
2022-09-28T07:33:14.611Z,20.45
2022-09-28T07:35:44.451Z,24.85
2022-09-28T07:38:11.349Z,23.98
2022-09-28T07:40:56.577Z,22.27
2022-09-28T07:43:23.369Z,20.33
2022-09-28T07:45:52.494Z,19.55
2022-09-28T07:48:19.721Z,19.65
2022-09-28T07:50:56.904Z,23.48
2022-09-28T07:53:25.271Z,20.60
2022-09-28T07:55:51.859Z,25.10
2022-09-28T07:58:19.491Z,23.50
2022-09-28T08:00:49.864Z,20.35
2022-09-28T08:03:17.463Z,21.40
2022-09-28T08:05:44.559Z,13.15
2022-09-28T08:08:11.266Z,11.90
2022-09-28T08:10:38.427Z,12.77
2022-09-28T08:13:07.478Z,14.68
2022-09-28T08:15:37.001Z,13.68
2022-09-28T08:18:07.099Z,12.93
2022-09-28T08:20:52.642Z,14.15
2022-09-28T08:23:20.633Z,12.45
2022-09-28T08:25:49.173Z,14.13
2022-09-28T08:28:17.762Z,12.05
2022-09-28T08:30:48.481Z,14.77
2022-09-28T08:33:17.991Z,13.05
2022-09-28T08:35:46.907Z,9.80
2022-09-28T08:38:14.014Z,9.88
2022-09-28T08:41:09.968Z,14.50
2022-09-28T08:43:42.567Z,11.38
2022-09-28T08:46:10.425Z,11.80
2022-09-28T08:48:51.737Z,9.65
2022-09-28T08:51:32.828Z,10.15
2022-09-28T08:54:18.661Z,17.73
2022-09-28T08:56:49.965Z,9.90
2022-09-28T08:59:25.841Z,9.70
2022-09-28T09:02:03.980Z,11.23
2022-09-28T09:04:32.968Z,10.77
2022-09-28T09:07:23.437Z,9.77
2022-09-28T09:10:08.661Z,14.35
2022-09-28T09:12:47.023Z,10.25
2022-09-28T09:15:49.055Z,18.50
2022-09-28T09:18:26.314Z,9.30
2022-09-28T09:20:57.637Z,10.35
2022-09-28T09:23:43.433Z,18.17
2022-09-28T09:26:32.913Z,8.25
2022-09-28T09:29:08.470Z,9.30
2022-09-28T09:31:59.684Z,11.98
2022-09-28T09:34:43.500Z,13.30
2022-09-28T09:37:34.489Z,8.00
2022-09-28T09:41:02.772Z,10.30
2022-09-28T09:43:58.937Z,10.75
2022-09-28T09:46:28.415Z,8.40
2022-09-28T09:49:07.176Z,9.35
2022-09-28T09:51:37.392Z,10.02
2022-09-28T09:54:24.358Z,9.13
2022-09-28T09:56:59.548Z,10.35
2022-09-28T09:59:38.321Z,8.30
2022-09-28T10:02:29.354Z,8.93
2022-09-28T10:05:07.122Z,8.98
2022-09-28T10:07:43.284Z,9.30
2022-09-28T10:10:49.937Z,8.55
2022-09-28T10:13:16.626Z,10.95
2022-09-28T10:15:45.362Z,10.10
2022-09-28T10:18:14.626Z,7.93
2022-09-28T10:20:43.557Z,6.50
2022-09-28T10:23:18.246Z,11.20
2022-09-28T10:25:46.420Z,9.20
2022-09-28T10:28:18.075Z,7.03
2022-09-28T10:30:45.122Z,6.95
2022-09-28T10:33:30.390Z,11.85
2022-09-28T10:35:57.574Z,9.35
2022-09-28T10:38:24.737Z,7.30
2022-09-28T10:40:56.066Z,12.18
2022-09-28T10:43:35.838Z,8.30
2022-09-28T10:46:07.438Z,10.13
2022-09-28T10:49:03.796Z,8.70
2022-09-28T10:51:43.859Z,9.15
2022-09-28T10:54:17.875Z,9.52
2022-09-28T10:56:45.181Z,14.57
2022-09-28T10:59:29.884Z,12.13
2022-09-28T11:02:00.996Z,8.27
2022-09-28T11:04:30.111Z,10.75
2022-09-28T11:09:32.690Z,7.38
2022-09-28T11:12:00.294Z,8.52
2022-09-28T11:14:39.599Z,9.63
2022-09-28T11:17:28.630Z,9.52
2022-09-28T11:20:16.500Z,8.85
2022-09-28T11:22:44.866Z,9.10
2022-09-28T11:25:17.233Z,13.75
2022-09-28T11:27:52.810Z,11.98
2022-09-28T11:30:25.643Z,10.40
2022-09-28T11:32:54.555Z,10.55
2022-09-28T11:35:25.316Z,7.60
2022-09-28T11:38:13.465Z,12.02
2022-09-28T11:40:50.109Z,9.70
2022-09-28T11:43:38.012Z,6.90
2022-09-28T11:46:38.907Z,12.52
2022-09-28T11:49:18.066Z,7.65
2022-09-28T11:51:46.339Z,12.15
2022-09-28T11:54:14.866Z,8.85
2022-09-28T11:59:16.095Z,12.10
2022-09-28T12:01:54.713Z,12.85
2022-09-28T12:04:46.451Z,9.02
2022-09-28T12:07:26.082Z,10.52
2022-09-28T12:10:13.271Z,9.98
2022-09-28T12:12:45.693Z,11.02
2022-09-28T12:15:29.405Z,9.73
2022-09-28T12:18:14.671Z,14.10
2022-09-28T12:20:47.619Z,9.57
2022-09-28T12:23:31.197Z,11.93
2022-09-28T12:26:10.780Z,8.32
2022-09-28T12:28:46.244Z,7.72
2022-09-28T12:31:36.186Z,11.07
2022-09-28T12:34:03.170Z,11.45
2022-09-28T12:36:32.621Z,9.40
2022-09-28T12:39:35.491Z,8.02
2022-09-28T12:42:21.212Z,14.50
2022-09-28T12:45:07.183Z,10.60
2022-09-28T12:47:58.289Z,7.22
2022-09-28T12:50:38.530Z,9.93
2022-09-28T12:53:38.875Z,11.30
2022-09-28T12:56:11.888Z,7.32
2022-09-28T12:59:01.074Z,10.55
2022-09-28T13:02:10.283Z,9.93
2022-09-28T13:05:10.137Z,9.65
2022-09-28T13:08:15.584Z,11.73
2022-09-28T13:13:19.046Z,7.32
2022-09-28T13:16:10.461Z,8.73
2022-09-28T13:18:52.135Z,8.23
2022-09-28T13:21:51.428Z,11.40
2022-09-28T13:24:33.050Z,7.80
2022-09-28T13:27:05.006Z,10.43
2022-09-28T13:29:32.166Z,10.65
2022-09-28T13:32:00.126Z,13.60
2022-09-28T13:34:32.926Z,13.18
2022-09-28T13:37:16.908Z,10.82
2022-09-28T13:39:46.314Z,10.98
2022-09-28T13:42:42.279Z,11.32
2022-09-28T13:45:14.797Z,10.02
2022-09-28T13:48:03.105Z,13.98
2022-09-28T13:50:44.834Z,14.23
2022-09-28T13:53:11.815Z,12.43
2022-09-28T13:55:57.317Z,14.75
2022-09-28T13:58:38.820Z,19.67
2022-09-28T14:01:16.252Z,14.55
2022-09-28T14:04:15.985Z,15.43
2022-09-28T14:06:48.723Z,12.52
2022-09-28T14:09:41.807Z,13.50
2022-09-28T14:12:37.641Z,14.63
2022-09-28T14:15:38.506Z,15.90
2022-09-28T14:18:32.227Z,20.25
2022-09-28T14:21:01.925Z,15.57
2022-09-28T14:23:37.297Z,13.02
2022-09-28T14:26:41.853Z,13.80
2022-09-28T14:29:27.870Z,10.98
2022-09-28T14:32:05.334Z,10.90
2022-09-28T14:34:42.856Z,15.80
2022-09-28T14:37:57.489Z,13.20
2022-09-28T14:40:49.544Z,11.13
2022-09-28T14:43:34.958Z,12.98
2022-09-28T14:46:28.432Z,14.70
2022-09-28T14:49:14.789Z,16.85
2022-09-28T14:51:41.360Z,14.02
2022-09-28T14:54:08.004Z,14.82
2022-09-28T14:56:43.703Z,14.27
2022-09-28T14:59:14.693Z,12.38
2022-09-28T15:01:44.226Z,14.32
2022-09-28T15:04:12.813Z,16.90
2022-09-28T15:06:47.298Z,17.80
2022-09-28T15:09:36.632Z,13.90
2022-09-28T15:12:15.678Z,16.48
2022-09-28T15:14:54.121Z,12.77
2022-09-28T15:17:27.350Z,12.77
2022-09-28T15:20:12.587Z,15.00
2022-09-28T15:22:45.860Z,12.40
2022-09-28T15:25:14.945Z,18.85
2022-09-28T15:27:41.624Z,16.58
2022-09-28T15:30:25.417Z,20.02
2022-09-28T15:32:56.882Z,22.33
2022-09-28T15:35:26.308Z,20.63
2022-09-28T15:37:54.902Z,20.17
2022-09-28T15:40:32.954Z,18.48
2022-09-28T15:42:59.993Z,19.80
2022-09-28T15:45:30.812Z,26.95
2022-09-28T15:48:18.648Z,18.85
2022-09-28T15:51:11.088Z,18.30
2022-09-28T15:53:51.254Z,298.83
2022-09-28T15:56:17.968Z,205.05
2022-09-28T15:59:25.001Z,224.05
2022-09-28T16:02:08.090Z,593.35
2022-09-28T16:04:51.818Z,441.20
2022-09-28T16:07:30.699Z,425.27
2022-09-28T16:10:06.500Z,88.80
2022-09-28T16:12:52.365Z,438.25
2022-09-28T16:15:32.587Z,63.50
2022-09-28T16:18:06.803Z,85.07
2022-09-28T16:20:36.551Z,20.95
2022-09-28T16:23:17.442Z,100.32
2022-09-28T16:25:51.860Z,26.25
2022-09-28T16:28:34.593Z,17.27
2022-09-28T16:31:06.252Z,15.55
2022-09-28T16:33:56.024Z,18.45
2022-09-28T16:36:23.760Z,22.02
2022-09-28T16:38:50.385Z,18.48
2022-09-28T16:41:20.747Z,23.55
2022-09-28T16:43:47.922Z,22.17
2022-09-28T16:46:17.574Z,21.58
2022-09-28T16:48:49.011Z,22.40
2022-09-28T16:51:16.754Z,22.13
2022-09-28T16:54:02.442Z,23.30
2022-09-28T16:56:29.492Z,24.20
2022-09-28T16:58:56.356Z,26.70
2022-09-28T17:01:25.497Z,20.58
2022-09-28T17:03:52.161Z,22.58
2022-09-28T17:06:20.006Z,17.45
2022-09-28T17:08:47.010Z,24.40
2022-09-28T17:11:23.675Z,30.92
2022-09-28T17:13:52.074Z,28.85
2022-09-28T17:16:36.732Z,23.42
2022-09-28T17:19:22.121Z,28.15
2022-09-28T17:21:49.040Z,26.65
2022-09-28T17:24:15.664Z,26.35
2022-09-28T17:26:44.513Z,28.25
2022-09-28T17:29:14.630Z,24.77
2022-09-28T17:31:45.720Z,26.02
2022-09-28T17:34:13.786Z,18.73
2022-09-28T17:36:41.646Z,20.48
2022-09-28T17:39:16.659Z,23.73
2022-09-28T17:44:28.651Z,38.15
2022-09-28T17:46:55.814Z,22.25
2022-09-28T17:49:22.493Z,24.75
2022-09-28T17:51:50.349Z,37.42
2022-09-28T17:54:21.154Z,21.58
2022-09-28T17:56:48.304Z,24.77
2022-09-28T17:59:17.721Z,23.30
2022-09-28T18:01:44.519Z,23.00
2022-09-28T18:04:33.372Z,18.73
2022-09-28T18:07:00.272Z,20.05
2022-09-28T18:09:26.941Z,19.83
2022-09-28T18:12:00.906Z,18.75
2022-09-28T18:14:28.532Z,20.17
2022-09-28T18:16:55.210Z,21.92
2022-09-28T18:19:21.843Z,29.50
2022-09-28T18:21:48.579Z,21.02
2022-09-28T18:24:15.364Z,22.42
2022-09-28T18:26:41.991Z,26.73
2022-09-28T18:29:08.664Z,20.77
2022-09-28T18:31:35.344Z,28.17
2022-09-28T18:34:02.054Z,24.02
2022-09-28T18:36:35.607Z,22.13
2022-09-28T18:39:02.817Z,22.25
2022-09-28T18:41:29.486Z,21.30
2022-09-28T18:44:00.684Z,24.48
2022-09-28T18:46:28.893Z,19.95
2022-09-28T18:48:56.135Z,26.33
2022-09-28T18:51:22.982Z,20.38
2022-09-28T18:53:50.235Z,25.13
2022-09-28T18:56:18.434Z,20.85
2022-09-28T18:58:45.923Z,21.98
2022-09-28T19:01:35.246Z,16.02
2022-09-28T19:04:06.912Z,20.25
2022-09-28T19:06:34.456Z,20.52
2022-09-28T19:09:01.579Z,17.75
2022-09-28T19:11:28.854Z,21.38
2022-09-28T19:13:55.991Z,17.15
2022-09-28T19:16:28.657Z,18.38
2022-09-28T19:18:58.997Z,17.88
2022-09-28T19:21:27.142Z,19.55
2022-09-28T19:23:55.509Z,19.58
2022-09-28T19:26:24.345Z,21.52
2022-09-28T19:28:51.064Z,19.25
2022-09-28T19:31:18.460Z,16.08
2022-09-28T19:33:46.611Z,25.10
2022-09-28T19:36:15.820Z,19.25
2022-09-28T19:41:35.887Z,19.88
2022-09-28T19:44:08.512Z,23.85
2022-09-28T19:46:36.773Z,19.55
2022-09-28T19:49:06.225Z,23.88
2022-09-28T19:51:33.313Z,22.23
2022-09-28T19:54:04.646Z,18.08
2022-09-28T19:56:32.797Z,20.67
2022-09-28T19:59:03.269Z,23.52
2022-09-28T20:01:30.775Z,21.25
2022-09-28T20:03:59.162Z,22.70
2022-09-28T20:06:26.502Z,25.45
2022-09-28T20:08:53.457Z,23.15
2022-09-28T20:11:20.642Z,20.52
2022-09-28T20:13:48.338Z,18.83
2022-09-28T20:16:17.455Z,19.13
2022-09-28T20:18:50.283Z,23.58
2022-09-28T20:21:20.112Z,25.92
2022-09-28T20:23:47.572Z,19.77
2022-09-28T20:26:15.163Z,20.23
2022-09-28T20:28:41.870Z,18.50
2022-09-28T20:31:12.343Z,24.73
2022-09-28T20:33:39.250Z,19.98
2022-09-28T20:36:10.075Z,19.98
2022-09-28T20:38:40.499Z,22.42
2022-09-28T20:41:08.558Z,21.05
2022-09-28T20:43:35.306Z,21.02
2022-09-28T20:46:03.458Z,26.55
2022-09-28T20:48:30.174Z,17.50
2022-09-28T20:51:02.997Z,39.88
2022-09-28T20:53:30.858Z,30.50
2022-09-28T20:56:08.821Z,21.20
2022-09-28T20:58:38.501Z,21.08
2022-09-28T21:01:08.317Z,26.25
2022-09-28T21:03:35.807Z,24.48
2022-09-28T21:06:03.492Z,22.50
2022-09-28T21:08:31.082Z,24.85
2022-09-28T21:10:57.734Z,25.75
2022-09-28T21:13:25.508Z,26.08
2022-09-28T21:15:52.474Z,22.75
2022-09-28T21:18:20.223Z,28.63
2022-09-28T21:20:48.856Z,25.05
2022-09-28T21:23:16.407Z,34.25
2022-09-28T21:25:45.637Z,21.73
2022-09-28T21:28:13.791Z,29.85
2022-09-28T21:30:41.721Z,28.85
2022-09-28T21:33:08.821Z,43.38
2022-09-28T21:35:36.715Z,39.80
2022-09-28T21:38:03.887Z,39.63
2022-09-28T21:40:30.831Z,43.33
2022-09-28T21:42:57.536Z,42.38
2022-09-28T21:45:25.214Z,39.58
2022-09-28T21:47:55.537Z,38.33
2022-09-28T21:50:26.590Z,34.78
2022-09-28T21:52:54.665Z,34.30
2022-09-28T21:55:23.317Z,34.38
2022-09-28T21:57:51.118Z,35.70
2022-09-28T22:00:23.138Z,38.03
2022-09-28T22:02:50.710Z,31.70
2022-09-28T22:05:17.934Z,34.78
2022-09-28T22:07:44.679Z,39.35
2022-09-28T22:10:13.341Z,36.38
2022-09-28T22:12:40.023Z,32.28
2022-09-28T22:15:07.481Z,32.40
2022-09-28T22:17:34.135Z,34.22
2022-09-28T22:20:01.014Z,27.92
2022-09-28T22:22:29.282Z,34.58
2022-09-28T22:24:56.273Z,32.95
2022-09-28T22:27:24.062Z,36.65
2022-09-28T22:29:51.156Z,33.53
2022-09-28T22:32:17.871Z,31.83
2022-09-28T22:34:44.515Z,28.58
2022-09-28T22:37:11.266Z,43.30
2022-09-28T22:39:38.091Z,47.38
2022-09-28T22:42:05.057Z,35.97
2022-09-28T22:44:31.741Z,40.33
2022-09-28T22:46:58.495Z,38.03
2022-09-28T22:49:25.149Z,32.20
2022-09-28T22:51:52.496Z,32.30
2022-09-28T22:54:19.252Z,32.30
2022-09-28T22:56:45.953Z,45.08
2022-09-28T22:59:12.654Z,41.97
2022-09-28T23:01:39.501Z,43.45
2022-09-28T23:04:06.382Z,43.20
2022-09-28T23:06:33.300Z,48.88
2022-09-28T23:09:00.751Z,47.45
2022-09-28T23:11:28.574Z,39.28
2022-09-28T23:13:59.213Z,40.67
2022-09-28T23:16:26.860Z,43.28
2022-09-28T23:18:55.380Z,64.57
2022-09-28T23:21:24.616Z,52.47
2022-09-28T23:23:57.057Z,52.53
2022-09-28T23:26:26.290Z,53.70
2022-09-28T23:28:53.886Z,53.50
2022-09-28T23:31:23.374Z,53.53
2022-09-28T23:33:50.829Z,50.17
2022-09-28T23:36:18.128Z,57.00
2022-09-28T23:38:44.907Z,53.22
2022-09-28T23:41:11.706Z,47.55
2022-09-28T23:43:38.441Z,46.67
2022-09-28T23:46:05.645Z,46.45
2022-09-28T23:48:32.586Z,48.25
2022-09-28T23:50:59.578Z,48.55
2022-09-28T23:53:26.618Z,39.97
2022-09-28T23:55:54.695Z,44.35
2022-09-28T23:58:21.590Z,41.47
